Time;durP1;ratioP1;P1;durP2;ratioP2;P2;SDS_P1;SDS_P2;PMS_P1;PMS_P2;Temp;Humidity;BMP_temperature;BMP_pressure;BME280_temperature;BME280_humidity;BME280_pressure;Samples;Min_cycle;Max_cycle;Signal;HPM_P1;HPM_P2
2024/01/20 00:01:20;;;;;;;;;;;-0.20;99.90;;;;;;5078918;28;19916;-65
2024/01/20 00:03:45;;;;;;;;;;;-0.20;99.90;;;;;;5073656;28;20284;-66
2024/01/20 00:06:11;;;;;;;;;;;-0.20;99.90;;;;;;5099928;27;19920;-66
2024/01/20 00:08:37;;;;;;;;;;;-0.20;99.90;;;;;;5073340;28;20380;-65
2024/01/20 00:11:02;;;;;;;;;;;-0.20;99.90;;;;;;5083100;28;19920;-65
2024/01/20 00:13:28;;;;;;;;;;;-0.30;99.90;;;;;;5071601;28;19916;-66
2024/01/20 00:15:53;;;;;;;;;;;-0.30;99.90;;;;;;5075308;28;19963;-65
2024/01/20 00:18:19;;;;;;;;;;;-0.30;99.90;;;;;;5058589;28;20388;-65
2024/01/20 00:20:46;;;;;;;;;;;-0.30;99.90;;;;;;5070858;28;19974;-66
2024/01/20 00:23:12;;;;;;;;;;;-0.30;99.90;;;;;;5072555;28;19970;-65
2024/01/20 00:25:37;;;;;;;;;;;-0.30;99.90;;;;;;5071568;28;20251;-65
2024/01/20 00:28:03;;;;;;;;;;;-0.40;99.90;;;;;;5072435;28;19960;-65
2024/01/20 00:30:29;;;;;;;;;;;-0.40;99.90;;;;;;5074503;28;19924;-65
2024/01/20 00:32:55;;;;;;;;;;;-0.40;99.90;;;;;;5077708;28;19919;-65
2024/01/20 00:35:20;;;;;;;;;;;-0.50;99.90;;;;;;5072013;28;20370;-65
2024/01/20 00:37:46;;;;;;;;;;;-0.40;99.90;;;;;;5079829;28;19924;-65
2024/01/20 00:40:12;;;;;;;;;;;-0.50;99.90;;;;;;5077012;28;19999;-65
2024/01/20 00:42:37;;;;;;;;;;;-0.50;99.90;;;;;;5072703;28;19928;-65
2024/01/20 00:45:04;;;;;;;;;;;-0.50;99.90;;;;;;5072216;28;19920;-65
2024/01/20 00:47:30;;;;;;;;;;;-0.50;99.90;;;;;;5070441;28;19917;-65
2024/01/20 00:49:55;;;;;;;;;;;-0.50;99.90;;;;;;5075446;28;19965;-65
2024/01/20 00:52:21;;;;;;;;;;;-0.50;99.90;;;;;;5071378;28;19923;-65
2024/01/20 00:54:46;;;;;;;;;;;-0.50;99.90;;;;;;5069051;28;19916;-65
2024/01/20 00:57:12;;;;;;;;;;;-0.60;99.90;;;;;;5077357;28;19917;-65
2024/01/20 00:59:38;;;;;;;;;;;-0.60;99.90;;;;;;5076960;28;19916;-65
2024/01/20 01:02:04;;;;;;;;;;;-0.60;99.90;;;;;;5060999;28;20382;-65
2024/01/20 01:04:29;;;;;;;;;;;-0.60;99.90;;;;;;5053461;28;19924;-65
2024/01/20 01:06:55;;;;;;;;;;;-0.60;99.90;;;;;;5078475;28;20407;-65
2024/01/20 01:09:20;;;;;;;;;;;-0.50;99.90;;;;;;5073754;28;19931;-65
2024/01/20 01:11:46;;;;;;;;;;;-0.60;99.90;;;;;;5076380;28;20372;-65
2024/01/20 01:14:12;;;;;;;;;;;-0.60;99.90;;;;;;5076127;28;20005;-65
2024/01/20 01:16:38;;;;;;;;;;;-0.60;99.90;;;;;;5068549;28;19938;-65
2024/01/20 01:19:03;;;;;;;;;;;-0.60;99.90;;;;;;5071958;28;20537;-65
2024/01/20 01:21:29;;;;;;;;;;;-0.60;99.90;;;;;;5072643;28;19923;-65
2024/01/20 01:23:54;;;;;;;;;;;-0.70;99.90;;;;;;5075166;28;19919;-65
2024/01/20 01:26:20;;;;;;;;;;;-0.60;99.90;;;;;;5074466;28;19999;-65
2024/01/20 01:28:46;;;;;;;;;;;-0.70;99.90;;;;;;5078594;28;19916;-65
2024/01/20 01:31:11;;;;;;;;;;;-0.70;99.90;;;;;;5071273;28;19974;-65
2024/01/20 01:33:37;;;;;;;;;;;-0.60;99.90;;;;;;5070062;28;19916;-65
2024/01/20 01:36:03;;;;;;;;;;;-0.70;99.90;;;;;;5071456;28;19978;-65
2024/01/20 01:38:29;;;;;;;;;;;-0.70;99.90;;;;;;5070887;28;19916;-66
2024/01/20 01:40:54;;;;;;;;;;;-0.70;99.90;;;;;;5073615;28;20421;-65
2024/01/20 01:43:20;;;;;;;;;;;-0.70;99.90;;;;;;5072758;28;20012;-65
2024/01/20 01:45:45;;;;;;;;;;;-0.60;99.90;;;;;;5076836;28;19924;-66
2024/01/20 01:48:11;;;;;;;;;;;-0.60;99.90;;;;;;5076059;28;19923;-65
2024/01/20 01:50:37;;;;;;;;;;;-0.60;99.90;;;;;;5072454;28;19916;-65
2024/01/20 01:53:03;;;;;;;;;;;-0.60;99.90;;;;;;5070972;28;19920;-65
2024/01/20 01:55:29;;;;;;;;;;;-0.60;99.90;;;;;;5058113;28;19985;-65
2024/01/20 01:57:55;;;;;;;;;;;-0.60;99.90;;;;;;5069711;28;19920;-65
2024/01/20 02:00:20;;;;;;;;;;;-0.50;99.90;;;;;;5075793;28;19951;-65
2024/01/20 02:02:46;;;;;;;;;;;-0.50;99.90;;;;;;5070428;28;20316;-65
2024/01/20 02:05:12;;;;;;;;;;;-0.50;99.90;;;;;;5069592;28;19985;-65
2024/01/20 02:07:39;;;;;;;;;;;-0.50;99.90;;;;;;5074888;28;19920;-66
2024/01/20 02:10:06;;;;;;;;;;;-0.50;99.90;;;;;;5073569;28;19916;-65
2024/01/20 02:12:32;;;;;;;;;;;-0.60;99.90;;;;;;5069850;28;19916;-65
2024/01/20 02:14:58;;;;;;;;;;;-0.50;99.90;;;;;;5069433;28;19924;-66
2024/01/20 02:17:23;;;;;;;;;;;-0.60;99.90;;;;;;5073270;28;19923;-65
2024/01/20 02:19:49;;;;;;;;;;;-0.60;99.90;;;;;;5074270;28;20302;-65
2024/01/20 02:22:15;;;;;;;;;;;-0.60;99.90;;;;;;5076289;28;19916;-65
2024/01/20 02:24:45;;;;;;;;;;;-0.60;99.90;;;;;;5073814;28;20340;-65
2024/01/20 02:27:11;;;;;;;;;;;-0.60;99.90;;;;;;5083655;28;19921;-65
2024/01/20 02:29:38;;;;;;;;;;;-0.60;99.90;;;;;;5055528;28;19930;-66
2024/01/20 02:32:04;;;;;;;;;;;-0.60;99.90;;;;;;5075560;28;19916;-65
2024/01/20 02:34:29;;;;;;;;;;;-0.60;99.90;;;;;;5079526;28;19978;-65
2024/01/20 02:36:55;;;;;;;;;;;-0.60;99.90;;;;;;5079890;28;19916;-65
2024/01/20 02:39:21;;;;;;;;;;;-0.60;99.90;;;;;;5076150;28;19924;-66
2024/01/20 02:41:47;;;;;;;;;;;-0.70;99.90;;;;;;5077987;28;19924;-66
2024/01/20 02:44:13;;;;;;;;;;;-0.70;99.90;;;;;;5081044;28;20377;-65
2024/01/20 02:46:38;;;;;;;;;;;-0.70;99.90;;;;;;5080524;28;20019;-65
2024/01/20 02:49:04;;;;;;;;;;;-0.70;99.90;;;;;;5080952;28;19916;-65
2024/01/20 02:51:30;;;;;;;;;;;-0.70;99.90;;;;;;5064753;28;19916;-66
2024/01/20 02:53:57;;;;;;;;;;;-0.80;99.90;;;;;;5077196;28;20304;-65
2024/01/20 02:56:24;;;;;;;;;;;-0.80;99.90;;;;;;5079240;28;19920;-65
2024/01/20 02:58:50;;;;;;;;;;;-0.90;99.90;;;;;;5079726;28;19916;-65
2024/01/20 03:01:15;;;;;;;;;;;-0.90;99.90;;;;;;5082285;28;20010;-66
2024/01/20 03:03:41;;;;;;;;;;;-0.90;99.90;;;;;;5085203;28;19970;-65
2024/01/20 03:06:07;;;;;;;;;;;-0.90;99.90;;;;;;5079021;28;20014;-65
2024/01/20 03:08:32;;;;;;;;;;;-0.90;99.90;;;;;;5082889;28;19963;-65
2024/01/20 03:10:58;;;;;;;;;;;-0.90;99.90;;;;;;5081432;28;19916;-65
2024/01/20 03:13:23;;;;;;;;;;;-1.00;99.90;;;;;;5086434;28;19966;-66
2024/01/20 03:15:49;;;;;;;;;;;-1.00;99.90;;;;;;5081574;28;20054;-65
2024/01/20 03:18:14;;;;;;;;;;;-1.00;99.90;;;;;;5085082;28;19916;-65
2024/01/20 03:20:40;;;;;;;;;;;-1.00;99.90;;;;;;5079051;28;19923;-65
2024/01/20 03:23:06;;;;;;;;;;;-1.00;99.90;;;;;;5078866;28;19916;-66
2024/01/20 03:25:32;;;;;;;;;;;-1.00;99.90;;;;;;5081423;28;19982;-65
2024/01/20 03:27:57;;;;;;;;;;;-1.10;99.90;;;;;;5078991;28;19916;-65
2024/01/20 03:30:23;;;;;;;;;;;-1.10;99.90;;;;;;5084006;28;20370;-65
2024/01/20 03:32:49;;;;;;;;;;;-1.10;99.90;;;;;;5081654;28;19924;-65
2024/01/20 03:35:15;;;;;;;;;;;-1.10;99.90;;;;;;5083001;28;20305;-65
2024/01/20 03:37:40;;;;;;;;;;;-1.10;99.90;;;;;;5063490;28;19916;-66
2024/01/20 03:40:06;;;;;;;;;;;-1.10;99.90;;;;;;5079717;28;20441;-65
2024/01/20 03:42:32;;;;;;;;;;;-1.10;99.90;;;;;;5075851;28;20333;-66
2024/01/20 03:44:58;;;;;;;;;;;-1.10;99.90;;;;;;5080654;28;19974;-65
2024/01/20 03:47:23;;;;;;;;;;;-1.10;99.90;;;;;;5081157;28;19923;-65
2024/01/20 03:49:49;;;;;;;;;;;-1.10;99.90;;;;;;5086132;28;20412;-65
2024/01/20 03:52:14;;;;;;;;;;;-1.10;99.90;;;;;;5080543;28;19935;-65
2024/01/20 03:54:40;;;;;;;;;;;-1.10;99.90;;;;;;5081727;28;19916;-65
2024/01/20 03:57:05;;;;;;;;;;;-1.10;99.90;;;;;;5073873;28;19916;-65
2024/01/20 03:59:31;;;;;;;;;;;-1.10;99.90;;;;;;5080086;28;20401;-65
2024/01/20 04:01:56;;;;;;;;;;;-1.20;99.90;;;;;;5081264;28;19916;-66
2024/01/20 04:04:22;;;;;;;;;;;-1.10;99.90;;;;;;5073776;28;19924;-65
2024/01/20 04:06:48;;;;;;;;;;;-1.20;99.90;;;;;;5081506;28;20027;-65
2024/01/20 04:09:13;;;;;;;;;;;-1.20;99.90;;;;;;5081175;28;20393;-65
2024/01/20 04:11:39;;;;;;;;;;;-1.20;99.90;;;;;;5086016;28;19942;-65
2024/01/20 04:14:04;;;;;;;;;;;-1.20;99.90;;;;;;5080040;28;20007;-66
2024/01/20 04:16:30;;;;;;;;;;;-1.20;99.90;;;;;;5079957;28;19924;-65
2024/01/20 04:18:56;;;;;;;;;;;-1.20;99.90;;;;;;5076769;28;19916;-65
2024/01/20 04:21:22;;;;;;;;;;;-1.20;99.90;;;;;;5081673;28;19920;-65
2024/01/20 04:23:49;;;;;;;;;;;-1.20;99.90;;;;;;5077413;28;20496;-65
2024/01/20 04:26:14;;;;;;;;;;;-1.10;99.90;;;;;;5078719;28;20015;-66
2024/01/20 04:28:40;;;;;;;;;;;-1.10;99.90;;;;;;5063772;28;20000;-65
2024/01/20 04:31:06;;;;;;;;;;;-1.10;99.90;;;;;;5043729;28;19938;-65
2024/01/20 04:33:33;;;;;;;;;;;-1.10;99.90;;;;;;5077436;28;19916;-66
2024/01/20 04:35:58;;;;;;;;;;;-1.10;99.90;;;;;;5081015;28;20155;-65
2024/01/20 04:38:24;;;;;;;;;;;-1.10;99.90;;;;;;5077992;28;19920;-65
2024/01/20 04:40:50;;;;;;;;;;;-1.10;99.90;;;;;;5084105;28;19969;-65
2024/01/20 04:43:16;;;;;;;;;;;-1.20;99.90;;;;;;5081616;28;19967;-65
2024/01/20 04:45:42;;;;;;;;;;;-1.20;99.90;;;;;;5086110;28;19966;-65
2024/01/20 04:48:07;;;;;;;;;;;-1.20;99.90;;;;;;5082804;28;19924;-66
2024/01/20 04:50:33;;;;;;;;;;;-1.30;99.90;;;;;;5077987;28;20447;-65
2024/01/20 04:52:58;;;;;;;;;;;-1.30;99.90;;;;;;5084504;28;19916;-65
2024/01/20 04:55:24;;;;;;;;;;;-1.30;99.90;;;;;;5083474;28;20443;-65
2024/01/20 04:57:49;;;;;;;;;;;-1.30;99.90;;;;;;5073217;28;19931;-65
2024/01/20 05:00:15;;;;;;;;;;;-1.30;99.90;;;;;;5076475;28;19916;-65
2024/01/20 05:02:41;;;;;;;;;;;-1.30;99.90;;;;;;5082120;28;20053;-65
2024/01/20 05:05:07;;;;;;;;;;;-1.30;99.90;;;;;;5076412;28;20018;-65
2024/01/20 05:07:32;;;;;;;;;;;-1.30;99.90;;;;;;5064654;28;20025;-65
2024/01/20 05:09:58;;;;;;;;;;;-1.30;99.90;;;;;;5076349;28;20389;-65
2024/01/20 05:12:24;;;;;;;;;;;-1.30;99.90;;;;;;5073624;28;19926;-65
2024/01/20 05:14:51;;;;;;;;;;;-1.30;99.90;;;;;;5076894;28;19916;-65
2024/01/20 05:17:17;;;;;;;;;;;-1.30;99.90;;;;;;5082781;28;20405;-64
2024/01/20 05:19:42;;;;;;;;;;;-1.30;99.90;;;;;;5076628;28;20277;-64
2024/01/20 05:22:08;;;;;;;;;;;-1.40;99.90;;;;;;5080215;28;19915;-65
2024/01/20 05:24:33;;;;;;;;;;;-1.40;99.90;;;;;;5079581;28;20125;-65
2024/01/20 05:26:59;;;;;;;;;;;-1.40;99.90;;;;;;5078003;28;19927;-65
2024/01/20 05:29:25;;;;;;;;;;;-1.40;99.90;;;;;;5079769;28;19924;-65
2024/01/20 05:31:50;;;;;;;;;;;-1.40;99.90;;;;;;5039884;28;19917;-66
2024/01/20 05:34:16;;;;;;;;;;;-1.40;99.90;;;;;;5073657;28;19916;-65
2024/01/20 05:36:41;;;;;;;;;;;-1.40;99.90;;;;;;5070053;28;19951;-65
2024/01/20 05:39:07;;;;;;;;;;;-1.50;99.90;;;;;;5074923;28;20424;-64
2024/01/20 05:41:32;;;;;;;;;;;-1.50;99.90;;;;;;5076863;28;19916;-64
2024/01/20 05:43:58;;;;;;;;;;;-1.50;99.90;;;;;;5071071;28;19916;-65
2024/01/20 05:46:24;;;;;;;;;;;-1.50;99.90;;;;;;5071572;28;19928;-64
2024/01/20 05:48:50;;;;;;;;;;;-1.50;99.90;;;;;;5072584;28;19939;-65
2024/01/20 05:51:15;;;;;;;;;;;-1.60;99.90;;;;;;5042615;28;19930;-64
2024/01/20 05:53:41;;;;;;;;;;;-1.60;99.90;;;;;;5073355;28;20360;-65
2024/01/20 05:56:06;;;;;;;;;;;-1.50;99.90;;;;;;5076726;28;19917;-65
2024/01/20 05:58:32;;;;;;;;;;;-1.60;99.90;;;;;;5075819;28;20215;-64
2024/01/20 06:00:58;;;;;;;;;;;-1.60;99.90;;;;;;5073595;28;19916;-64
2024/01/20 06:03:25;;;;;;;;;;;-1.50;99.90;;;;;;5078181;28;19920;-64
2024/01/20 06:05:51;;;;;;;;;;;-1.50;99.90;;;;;;5070757;28;20294;-64
2024/01/20 06:08:17;;;;;;;;;;;-1.50;99.90;;;;;;5080269;28;19920;-64
2024/01/20 06:10:43;;;;;;;;;;;-1.50;99.90;;;;;;5072780;28;19916;-65
2024/01/20 06:13:08;;;;;;;;;;;-1.50;99.90;;;;;;5071857;28;19924;-66
2024/01/20 06:15:34;;;;;;;;;;;-1.50;99.90;;;;;;5039752;28;19966;-64
2024/01/20 06:17:59;;;;;;;;;;;-1.50;99.90;;;;;;5070612;28;19922;-65
2024/01/20 06:20:25;;;;;;;;;;;-1.40;99.90;;;;;;5073430;28;20362;-64
2024/01/20 06:22:50;;;;;;;;;;;-1.30;99.90;;;;;;5067811;28;20027;-65
2024/01/20 06:25:16;;;;;;;;;;;-1.30;99.90;;;;;;5071975;28;19950;-64
2024/01/20 06:27:42;;;;;;;;;;;-1.30;99.90;;;;;;5068074;28;19920;-64
2024/01/20 06:30:08;;;;;;;;;;;-1.20;99.90;;;;;;5063464;28;20636;-65
2024/01/20 06:32:33;;;;;;;;;;;-1.20;99.90;;;;;;5093531;28;19921;-65
2024/01/20 06:34:59;;;;;;;;;;;-1.20;99.90;;;;;;5068863;28;19916;-65
2024/01/20 06:37:24;;;;;;;;;;;-1.30;99.90;;;;;;5071380;28;19916;-65
2024/01/20 06:39:50;;;;;;;;;;;-1.30;99.90;;;;;;5066591;28;19916;-64
2024/01/20 06:42:15;;;;;;;;;;;-1.30;99.90;;;;;;5068858;28;19920;-65
2024/01/20 06:44:41;;;;;;;;;;;-1.30;99.90;;;;;;5051138;28;19923;-66
2024/01/20 06:47:07;;;;;;;;;;;-1.30;99.90;;;;;;5067084;28;20297;-65
2024/01/20 06:49:33;;;;;;;;;;;-1.30;99.90;;;;;;5067576;28;19923;-65
2024/01/20 06:51:58;;;;;;;;;;;-1.30;99.90;;;;;;5068630;28;20034;-65
2024/01/20 06:54:24;;;;;;;;;;;-1.30;99.90;;;;;;5066480;28;19952;-65
2024/01/20 06:56:49;;;;;;;;;;;-1.30;99.90;;;;;;5068810;28;20575;-65
2024/01/20 06:59:15;;;;;;;;;;;-1.30;99.90;;;;;;5050577;28;19916;-65
2024/01/20 07:01:41;;;;;;;;;;;-1.30;99.90;;;;;;5067469;28;20397;-65
2024/01/20 07:04:07;;;;;;;;;;;-1.40;99.90;;;;;;5067059;28;19916;-65
2024/01/20 07:06:32;;;;;;;;;;;-1.40;99.90;;;;;;5068600;28;19924;-65
2024/01/20 07:08:58;;;;;;;;;;;-1.30;99.90;;;;;;5051970;28;20373;-65
2024/01/20 07:11:24;;;;;;;;;;;-1.40;99.90;;;;;;5073240;28;19916;-65
2024/01/20 07:13:50;;;;;;;;;;;-1.30;99.90;;;;;;5066951;28;19916;-65
2024/01/20 07:16:18;;;;;;;;;;;-1.30;99.90;;;;;;5055116;28;19923;-65
2024/01/20 07:18:44;;;;;;;;;;;-1.30;99.90;;;;;;5072978;28;20289;-65
2024/01/20 07:21:09;;;;;;;;;;;-1.40;99.90;;;;;;5064898;28;19916;-66
2024/01/20 07:23:35;;;;;;;;;;;-1.40;99.90;;;;;;5072467;28;19916;-65
2024/01/20 07:26:00;;;;;;;;;;;-1.40;99.90;;;;;;5072759;28;19970;-65
2024/01/20 07:28:26;;;;;;;;;;;-1.40;99.90;;;;;;5071177;28;19962;-65
2024/01/20 07:30:52;;;;;;;;;;;-1.40;99.90;;;;;;5072892;28;19916;-65
2024/01/20 07:33:18;;;;;;;;;;;-1.40;99.90;;;;;;5072027;28;19926;-65
2024/01/20 07:35:43;;;;;;;;;;;-1.40;99.90;;;;;;5069918;28;20319;-65
2024/01/20 07:38:09;;;;;;;;;;;-1.40;99.90;;;;;;5070827;28;19917;-65
2024/01/20 07:40:36;;;;;;;;;;;-1.30;99.90;;;;;;5069170;28;19920;-65
2024/01/20 07:43:03;;;;;;;;;;;-1.30;99.90;;;;;;5077060;28;19936;-65
2024/01/20 07:45:30;;;;;;;;;;;-1.20;99.90;;;;;;5077154;28;19928;-65
2024/01/20 07:47:56;;;;;;;;;;;-1.30;99.90;;;;;;5079799;28;20329;-66
2024/01/20 07:50:21;;;;;;;;;;;-1.20;99.90;;;;;;5087057;28;19916;-65
2024/01/20 07:52:47;;;;;;;;;;;-1.20;99.90;;;;;;5077136;28;19985;-65
2024/01/20 07:55:12;;;;;;;;;;;-1.20;99.90;;;;;;5077824;28;19924;-65
2024/01/20 07:57:39;;;;;;;;;;;-1.10;99.90;;;;;;5072394;28;19922;-64
2024/01/20 08:00:05;;;;;;;;;;;-1.10;99.90;;;;;;5070952;28;19917;-65
2024/01/20 08:02:30;;;;;;;;;;;-1.00;99.90;;;;;;5070898;28;19969;-65
2024/01/20 08:04:56;;;;;;;;;;;-0.90;99.90;;;;;;5071204;28;19923;-65
2024/01/20 08:07:22;;;;;;;;;;;-0.90;99.90;;;;;;5052872;28;19924;-64
2024/01/20 08:09:47;;;;;;;;;;;-0.80;99.90;;;;;;5071062;28;19923;-65
2024/01/20 08:12:13;;;;;;;;;;;-0.70;99.90;;;;;;5068124;28;20350;-65
2024/01/20 08:14:38;;;;;;;;;;;-0.70;99.90;;;;;;5075668;28;19917;-65
2024/01/20 08:17:04;;;;;;;;;;;-0.70;99.90;;;;;;5074524;28;19936;-65
2024/01/20 08:19:29;;;;;;;;;;;-0.60;99.90;;;;;;5070895;28;20247;-65
2024/01/20 08:21:55;;;;;;;;;;;-0.60;99.90;;;;;;5072003;28;19923;-65
2024/01/20 08:24:21;;;;;;;;;;;-0.60;99.90;;;;;;5068763;28;20017;-64
2024/01/20 08:26:46;;;;;;;;;;;-0.60;99.90;;;;;;5058231;28;19924;-65
2024/01/20 08:29:12;;;;;;;;;;;-0.60;99.90;;;;;;5070621;28;19927;-65
2024/01/20 08:31:37;;;;;;;;;;;-0.50;99.90;;;;;;5071649;28;20007;-64
2024/01/20 08:34:03;;;;;;;;;;;-0.40;99.90;;;;;;5071798;28;19958;-64
2024/01/20 08:36:29;;;;;;;;;;;-0.40;99.90;;;;;;5070793;28;20015;-66
2024/01/20 08:38:55;;;;;;;;;;;-0.40;99.90;;;;;;5073610;28;20070;-65
2024/01/20 08:41:20;;;;;;;;;;;-0.40;99.90;;;;;;5071487;28;19924;-64
2024/01/20 08:43:47;;;;;;;;;;;-0.40;99.90;;;;;;5067217;28;19928;-65
2024/01/20 08:46:12;;;;;;;;;;;-0.40;99.90;;;;;;5070995;28;19978;-65
2024/01/20 08:48:39;;;;;;;;;;;-0.30;99.90;;;;;;5070615;28;19955;-65
2024/01/20 08:51:04;;;;;;;;;;;-0.30;99.90;;;;;;5070333;28;19916;-65
2024/01/20 08:53:30;;;;;;;;;;;-0.30;99.90;;;;;;5051863;28;19923;-65
2024/01/20 08:55:56;;;;;;;;;;;-0.20;99.90;;;;;;5071710;28;19916;-65
2024/01/20 08:58:22;;;;;;;;;;;-0.20;99.90;;;;;;5071231;28;20287;-65
2024/01/20 09:00:47;;;;;;;;;;;-0.20;99.90;;;;;;5071513;28;19920;-65
2024/01/20 09:03:15;;;;;;;;;;;0.00;99.90;;;;;;5070416;28;20396;-64
2024/01/20 09:05:41;;;;;;;;;;;0.30;99.90;;;;;;5056353;28;19921;-65
2024/01/20 09:08:09;;;;;;;;;;;0.50;99.90;;;;;;5053490;28;19922;-65
2024/01/20 09:10:36;;;;;;;;;;;0.70;99.90;;;;;;5067210;28;19927;-65
2024/01/20 09:13:04;;;;;;;;;;;0.70;99.90;;;;;;5071290;28;19923;-65
2024/01/20 09:15:30;;;;;;;;;;;0.80;99.90;;;;;;5068329;28;20007;-65
2024/01/20 09:17:56;;;;;;;;;;;0.60;99.90;;;;;;5070992;28;20453;-65
2024/01/20 09:20:21;;;;;;;;;;;0.40;99.90;;;;;;5069890;28;19921;-65
2024/01/20 09:22:47;;;;;;;;;;;0.30;99.90;;;;;;5069959;28;19923;-65
2024/01/20 09:25:12;;;;;;;;;;;0.10;99.90;;;;;;5068294;28;20426;-65
2024/01/20 09:27:38;;;;;;;;;;;0.10;99.90;;;;;;5069517;28;19916;-65
2024/01/20 09:30:05;;;;;;;;;;;0.00;99.90;;;;;;5070571;28;19959;-65
2024/01/20 09:32:33;;;;;;;;;;;0.10;99.90;;;;;;5071155;28;19920;-65
2024/01/20 09:35:03;;;;;;;;;;;0.10;99.90;;;;;;5068899;28;19924;-65
2024/01/20 09:37:29;;;;;;;;;;;0.10;99.90;;;;;;5070884;28;19916;-65
2024/01/20 09:39:57;;;;;;;;;;;0.10;99.90;;;;;;5069900;28;20022;-65
2024/01/20 09:42:23;;;;;;;;;;;0.20;99.90;;;;;;5067601;28;19920;-65
2024/01/20 09:44:49;;;;;;;;;;;0.20;99.90;;;;;;5077450;28;19923;-65
2024/01/20 09:47:14;;;;;;;;;;;0.20;99.90;;;;;;5077563;28;19936;-65
2024/01/20 09:49:40;;;;;;;;;;;0.30;99.90;;;;;;5075234;28;20042;-65
2024/01/20 09:52:12;;;;;;;;;;;0.40;99.90;;;;;;5071510;28;19931;-65
2024/01/20 09:54:43;;;;;;;;;;;0.40;99.90;;;;;;5072216;28;20011;-65
2024/01/20 09:57:11;;;;;;;;;;;0.40;99.90;;;;;;5092401;28;19923;-65
2024/01/20 09:59:40;;;;;;;;;;;0.50;99.90;;;;;;5052586;28;19916;-65
2024/01/20 10:02:06;;;;;;;;;;;0.60;99.90;;;;;;5071894;28;19959;-65
2024/01/20 10:04:33;;;;;;;;;;;0.80;99.90;;;;;;5064638;28;20007;-66
2024/01/20 10:06:59;;;;;;;;;;;0.90;99.90;;;;;;5077416;28;19947;-66
2024/01/20 10:09:25;;;;;;;;;;;1.00;99.90;;;;;;5100839;28;20530;-66
2024/01/20 10:11:51;;;;;;;;;;;1.00;99.90;;;;;;5082658;28;19916;-65
2024/01/20 10:14:16;;;;;;;;;;;1.10;99.90;;;;;;5055617;28;19970;-65
2024/01/20 10:16:42;;;;;;;;;;;1.10;99.90;;;;;;5059595;28;19938;-65
2024/01/20 10:19:07;;;;;;;;;;;1.10;99.90;;;;;;5076117;28;19916;-66
2024/01/20 10:21:40;;;;;;;;;;;1.20;99.90;;;;;;5070100;28;19915;-66
2024/01/20 10:24:07;;;;;;;;;;;1.30;99.90;;;;;;5076517;28;19916;-66
2024/01/20 10:26:43;;;;;;;;;;;1.30;99.90;;;;;;5081173;28;19928;-65
2024/01/20 10:29:09;;;;;;;;;;;1.30;99.90;;;;;;5069500;28;20019;-65
2024/01/20 10:31:35;;;;;;;;;;;1.30;99.90;;;;;;5076559;28;19956;-65
2024/01/20 10:34:01;;;;;;;;;;;1.20;99.90;;;;;;5078429;28;20376;-66
2024/01/20 10:36:27;;;;;;;;;;;1.20;99.90;;;;;;5079515;28;19999;-65
2024/01/20 10:38:53;;;;;;;;;;;1.10;99.90;;;;;;5072845;28;19995;-65
2024/01/20 10:41:23;;;;;;;;;;;1.10;99.90;;;;;;5071709;28;20366;-66
2024/01/20 10:44:00;;;;;;;;;;;1.10;99.90;;;;;;5075439;28;19920;-66
2024/01/20 10:46:27;;;;;;;;;;;1.10;99.90;;;;;;5069576;28;19970;-66
2024/01/20 10:48:53;;;;;;;;;;;1.20;99.90;;;;;;5072874;28;19999;-66
2024/01/20 10:51:24;;;;;;;;;;;1.20;99.90;;;;;;5054546;28;20003;-66
2024/01/20 10:53:51;;;;;;;;;;;1.30;99.90;;;;;;5070070;28;20357;-66
2024/01/20 10:56:17;;;;;;;;;;;1.30;99.90;;;;;;5069596;28;19998;-66
2024/01/20 10:58:46;;;;;;;;;;;1.30;99.90;;;;;;5075770;28;20011;-66
2024/01/20 11:01:12;;;;;;;;;;;1.30;99.90;;;;;;5112207;27;19922;-66
2024/01/20 11:03:38;;;;;;;;;;;1.30;99.90;;;;;;5078666;28;19991;-66
2024/01/20 11:06:04;;;;;;;;;;;1.30;99.90;;;;;;5078569;28;19969;-65
2024/01/20 11:08:31;;;;;;;;;;;1.30;99.90;;;;;;5084159;28;20181;-66
2024/01/20 11:10:56;;;;;;;;;;;1.30;99.90;;;;;;5084653;28;19954;-66
2024/01/20 11:13:25;;;;;;;;;;;1.30;99.90;;;;;;5082172;28;19963;-65
2024/01/20 11:15:51;;;;;;;;;;;1.30;99.90;;;;;;5078853;28;19916;-65
2024/01/20 11:18:18;;;;;;;;;;;1.40;99.90;;;;;;5080338;28;19966;-65
2024/01/20 11:20:53;;;;;;;;;;;1.40;99.90;;;;;;5078218;28;19916;-65
2024/01/20 11:23:18;;;;;;;;;;;1.40;99.90;;;;;;5081857;28;20293;-65
2024/01/20 11:25:44;;;;;;;;;;;1.40;99.90;;;;;;5062147;28;19928;-65
2024/01/20 11:28:10;;;;;;;;;;;1.40;99.90;;;;;;5073733;28;19916;-65
2024/01/20 11:30:36;;;;;;;;;;;1.40;99.90;;;;;;5052250;28;19923;-65
2024/01/20 11:33:02;;;;;;;;;;;1.40;99.90;;;;;;5074201;28;19986;-65
2024/01/20 11:35:27;;;;;;;;;;;1.40;99.90;;;;;;5084088;28;19916;-66
2024/01/20 11:37:54;;;;;;;;;;;1.40;99.90;;;;;;5083117;28;19933;-65
2024/01/20 11:40:19;;;;;;;;;;;1.40;99.90;;;;;;5071148;28;20140;-65
2024/01/20 11:42:45;;;;;;;;;;;1.50;99.90;;;;;;5081384;28;19970;-65
2024/01/20 11:45:11;;;;;;;;;;;1.40;99.90;;;;;;5070501;28;20015;-65
2024/01/20 11:47:37;;;;;;;;;;;1.40;99.90;;;;;;5074583;28;19970;-65
2024/01/20 11:50:03;;;;;;;;;;;1.50;99.90;;;;;;5085491;28;19924;-65
2024/01/20 11:52:29;;;;;;;;;;;1.40;99.90;;;;;;5073444;28;19961;-65
2024/01/20 11:54:54;;;;;;;;;;;1.50;99.90;;;;;;5059296;28;19931;-65
2024/01/20 11:57:21;;;;;;;;;;;1.40;99.90;;;;;;5068759;28;20003;-65
2024/01/20 11:59:47;;;;;;;;;;;1.40;99.90;;;;;;5070156;28;19917;-65
2024/01/20 12:02:12;;;;;;;;;;;1.40;99.90;;;;;;5073427;28;19916;-65
2024/01/20 12:04:38;;;;;;;;;;;1.40;99.90;;;;;;5082613;28;19924;-65
2024/01/20 12:07:03;;;;;;;;;;;1.40;99.90;;;;;;5091777;28;19979;-65
2024/01/20 12:09:29;;;;;;;;;;;1.40;99.90;;;;;;5064287;28;20377;-65
2024/01/20 12:11:55;;;;;;;;;;;1.40;99.90;;;;;;5077607;28;19922;-65
2024/01/20 12:14:21;;;;;;;;;;;1.40;99.90;;;;;;5078013;28;19917;-65
2024/01/20 12:16:47;;;;;;;;;;;1.40;99.90;;;;;;5085313;28;19916;-65
2024/01/20 12:19:13;;;;;;;;;;;1.40;99.90;;;;;;5074661;28;19923;-65
2024/01/20 12:21:39;;;;;;;;;;;1.40;99.90;;;;;;5076282;28;19916;-65
2024/01/20 12:24:04;;;;;;;;;;;1.40;99.90;;;;;;5092853;28;20005;-65
2024/01/20 12:26:31;;;;;;;;;;;1.40;99.90;;;;;;5080224;28;19971;-65
2024/01/20 12:28:56;;;;;;;;;;;1.50;99.90;;;;;;5072709;28;20011;-65
2024/01/20 12:31:22;;;;;;;;;;;1.50;99.90;;;;;;5075324;28;20058;-65
2024/01/20 12:33:48;;;;;;;;;;;1.50;99.90;;;;;;5077143;28;19923;-65
2024/01/20 12:36:14;;;;;;;;;;;1.50;99.90;;;;;;5060007;28;20450;-65
2024/01/20 12:38:39;;;;;;;;;;;1.50;99.90;;;;;;5082257;28;19971;-65
2024/01/20 12:41:06;;;;;;;;;;;1.60;99.90;;;;;;5081597;28;19916;-65
2024/01/20 12:43:31;;;;;;;;;;;1.50;99.90;;;;;;5075800;28;20326;-65
2024/01/20 12:45:57;;;;;;;;;;;1.50;99.90;;;;;;5077578;28;20908;-65
2024/01/20 12:48:23;;;;;;;;;;;1.50;99.90;;;;;;5071906;28;20471;-65
2024/01/20 12:50:48;;;;;;;;;;;1.60;99.90;;;;;;5067569;28;19924;-65
2024/01/20 12:53:14;;;;;;;;;;;1.60;99.90;;;;;;5077501;28;19924;-65
2024/01/20 12:55:40;;;;;;;;;;;1.60;99.90;;;;;;5076820;28;20120;-65
2024/01/20 12:58:06;;;;;;;;;;;1.50;99.90;;;;;;5083951;28;20365;-65
2024/01/20 13:00:31;;;;;;;;;;;1.50;99.90;;;;;;5077624;28;19955;-65
2024/01/20 13:02:57;;;;;;;;;;;1.60;99.90;;;;;;5075609;28;19916;-65
2024/01/20 13:05:22;;;;;;;;;;;1.60;99.90;;;;;;5079174;28;20116;-65
2024/01/20 13:07:48;;;;;;;;;;;1.60;99.90;;;;;;5074611;28;19924;-65
2024/01/20 13:10:14;;;;;;;;;;;1.60;99.90;;;;;;5077306;28;19920;-65
2024/01/20 13:12:39;;;;;;;;;;;1.60;99.90;;;;;;5084756;28;19915;-64
2024/01/20 13:15:05;;;;;;;;;;;1.60;99.90;;;;;;5084083;28;20014;-65
2024/01/20 13:17:31;;;;;;;;;;;1.70;99.90;;;;;;5079323;28;20377;-65
2024/01/20 13:19:56;;;;;;;;;;;1.80;99.90;;;;;;5061353;28;20381;-65
2024/01/20 13:22:22;;;;;;;;;;;1.80;99.90;;;;;;5077335;28;19916;-65
2024/01/20 13:24:48;;;;;;;;;;;1.80;99.90;;;;;;5060590;28;20342;-65
2024/01/20 13:27:14;;;;;;;;;;;1.80;99.90;;;;;;5078437;28;19926;-66
2024/01/20 13:29:39;;;;;;;;;;;1.90;99.90;;;;;;5074978;28;19916;-65
2024/01/20 13:32:06;;;;;;;;;;;1.90;99.90;;;;;;5061348;28;19916;-64
2024/01/20 13:34:33;;;;;;;;;;;2.00;99.90;;;;;;5071661;28;19924;-65
2024/01/20 13:36:59;;;;;;;;;;;2.00;99.90;;;;;;5074519;28;20050;-65
2024/01/20 13:39:24;;;;;;;;;;;2.10;99.90;;;;;;5083630;28;20003;-65
2024/01/20 13:41:50;;;;;;;;;;;2.20;99.90;;;;;;5056825;28;19916;-65
2024/01/20 13:44:16;;;;;;;;;;;2.20;99.90;;;;;;5084983;28;19920;-65
2024/01/20 13:46:41;;;;;;;;;;;2.30;99.90;;;;;;5075845;28;19927;-65
2024/01/20 13:49:07;;;;;;;;;;;2.30;99.90;;;;;;5076863;28;19916;-64
2024/01/20 13:51:32;;;;;;;;;;;2.40;99.90;;;;;;5076945;28;19999;-65
2024/01/20 13:53:59;;;;;;;;;;;2.40;99.90;;;;;;5076708;28;20373;-65
2024/01/20 13:56:25;;;;;;;;;;;2.50;99.90;;;;;;5071756;28;19927;-64
2024/01/20 13:58:52;;;;;;;;;;;2.60;99.90;;;;;;5081493;28;19918;-65
2024/01/20 14:01:21;;;;;;;;;;;2.50;99.90;;;;;;5079874;28;19916;-64
2024/01/20 14:03:47;;;;;;;;;;;2.40;99.90;;;;;;5079563;28;20374;-65
2024/01/20 14:06:13;;;;;;;;;;;2.50;99.90;;;;;;5052242;28;19943;-65
2024/01/20 14:08:40;;;;;;;;;;;2.40;99.90;;;;;;5068418;28;20171;-65
2024/01/20 14:11:06;;;;;;;;;;;2.50;99.90;;;;;;5077485;28;19915;-65
2024/01/20 14:13:31;;;;;;;;;;;2.50;99.90;;;;;;5078488;28;20369;-65